map of TRE home
TRE - Airport
Location
City:  Tiree, Isle of Tiree, Argyll, Scotland, United Kingdom
ICAO:EGPU
IATA:TRE

Details
Type:Airport (Aerodrome, Airfield)
Latitude:5629'57"N (56.499167)
Longitude:652'09"W (-6.869166)
Datum:WGS 1984
Elevation:38 ft (12 m)
Variation:3.72W (WMM2015 magnetic declination)
0.18 annual change
Runways:3
Longest:4600 × 98 ft (1402 × 30 m), paved

Time
Time Zone:UTC+0 (DST+1)
Local Time:

Weather
METAR:EGPU 150150Z AUTO 14038KT 2500 -RADZ BKN008/// BKN017/// 06/05 Q1005

Related Locations
Nearby:
Farthest:SZS: 11733 mi / 18883 km
Ryan's Creek, Stewart Island, STL, NZ

Find:

   beyond  
but within

Other Information
Maps:
NOTAMs:
Links:
Sources:

  
  • flag of United Kingdom
  • flag of Scotland
  

Sectional Chart

Flight Planning
at skyvector.com

Satellite Image

Google Maps Satellite view

 

Copyright © 2004-2018 Karl L. Swartz. All rights reserved.
The Great Circle Mapper name and logo are trademarks of the Great Circle Mapper.
All other trademarks mentioned herein belong to their respective owners.
Please see credits for attibutions and further copyright information.

  Follow gcmap on Facebook Follow gcmap on Twitter Follow gcmap on Google+ GCmap on LinkedIn

hCard Microformat

Geo Microformat